Time;durP1;ratioP1;P1;durP2;ratioP2;P2;SDS_P1;SDS_P2;PMS_P1;PMS_P2;Temp;Humidity;BMP_temperature;BMP_pressure;BME280_temperature;BME280_humidity;BME280_pressure;Samples;Min_cycle;Max_cycle;Signal;HPM_P1;HPM_P2
2021/12/26 00:01:01;;;;;;;;;;;;;;;-6.36;81.61;99033.97;1637433;86;21146;-70
2021/12/26 00:03:30;;;;;;;;;;;;;;;-6.42;81.57;99037.52;1647350;86;20178;-71
2021/12/26 00:05:57;;;;;;;;;;;;;;;-6.47;81.68;99038.17;1640800;86;20204;-72
2021/12/26 00:08:25;;;;;;;;;;;;;;;-6.51;82.15;99031.63;1638831;86;20090;-71
2021/12/26 00:10:58;;;;;;;;;;;;;;;-6.56;82.03;99040.81;1643935;86;20121;-71
2021/12/26 00:13:26;;;;;;;;;;;;;;;-6.60;82.19;99044.12;1640913;86;21882;-71
2021/12/26 00:15:53;;;;;;;;;;;;;;;-6.64;82.69;99046.94;1647743;86;20098;-71
2021/12/26 00:18:23;;;;;;;;;;;;;;;-6.68;82.68;99046.03;1644386;86;20084;-71
2021/12/26 00:20:54;;;;;;;;;;;;;;;-6.72;82.50;99046.68;1636750;86;20100;-71
2021/12/26 00:23:21;;;;;;;;;;;;;;;-6.77;82.81;99048.66;1641487;85;20208;-71
2021/12/26 00:25:54;;;;;;;;;;;;;;;-6.80;83.14;99049.09;1621106;86;20683;-72
2021/12/26 00:28:27;;;;;;;;;;;;;;;-6.83;82.95;99043.36;1613908;87;20106;-71
2021/12/26 00:30:54;;;;;;;;;;;;;;;-6.88;83.10;99041.34;1613955;86;20156;-71
2021/12/26 00:33:24;;;;;;;;;;;;;;;-6.89;84.29;99051.72;1641175;86;20120;-71
2021/12/26 00:35:57;;;;;;;;;;;;;;;-6.91;83.98;99037.77;1635300;86;20470;-71
2021/12/26 00:38:20;;;;;;;;;;;;;;;-6.95;83.78;99044.60;1644023;86;21176;-72
2021/12/26 00:40:51;;;;;;;;;;;;;;;-6.99;84.15;99047.39;1632446;86;20111;-73
2021/12/26 00:43:21;;;;;;;;;;;;;;;-7.02;84.11;99050.49;1655537;86;20456;-73
2021/12/26 00:45:48;;;;;;;;;;;;;;;-7.06;83.91;99048.77;1660000;86;20126;-73
2021/12/26 00:48:15;;;;;;;;;;;;;;;-7.09;83.77;99049.71;1656645;85;20087;-74
2021/12/26 00:50:45;;;;;;;;;;;;;;;-7.11;83.84;99044.59;1654634;86;21151;-74
2021/12/26 00:53:16;;;;;;;;;;;;;;;-7.11;83.95;99049.11;1655728;86;20087;-73
2021/12/26 00:55:56;;;;;;;;;;;;;;;-7.15;84.01;99051.90;1624505;86;20106;-73
2021/12/26 00:58:20;;;;;;;;;;;;;;;-7.16;84.37;99052.93;1642204;85;20156;-73
2021/12/26 01:00:58;;;;;;;;;;;;;;;-7.18;84.64;99054.48;1657755;85;20110;-75
2021/12/26 01:03:27;;;;;;;;;;;;;;;-7.19;84.42;99051.50;1623377;86;21107;-74
2021/12/26 01:05:59;;;;;;;;;;;;;;;-7.23;84.40;99052.14;1650230;86;20198;-74
2021/12/26 01:08:31;;;;;;;;;;;;;;;-7.26;84.39;99048.57;1636046;86;20108;-72
2021/12/26 01:11:08;;;;;;;;;;;;;;;-7.32;84.52;99039.05;1631323;86;20132;-73
2021/12/26 01:13:37;;;;;;;;;;;;;;;-7.35;84.62;99040.81;1628692;87;20092;-72
2021/12/26 01:16:11;;;;;;;;;;;;;;;-7.36;84.91;99041.84;1606319;87;20615;-72
2021/12/26 01:18:43;;;;;;;;;;;;;;;-7.38;84.91;99048.41;1630673;86;20142;-72
2021/12/26 01:21:21;;;;;;;;;;;;;;;-7.42;84.83;99046.69;1659225;86;20477;-73
2021/12/26 01:24:02;;;;;;;;;;;;;;;-7.45;85.02;99043.63;1656217;86;20100;-73
2021/12/26 01:26:35;;;;;;;;;;;;;;;-7.48;85.42;99051.53;1657366;86;20124;-73
2021/12/26 01:29:04;;;;;;;;;;;;;;;-7.53;85.24;99039.90;1653886;86;21144;-72
2021/12/26 01:31:32;;;;;;;;;;;;;;;-7.56;85.32;99046.98;1652186;86;20077;-71
2021/12/26 01:34:08;;;;;;;;;;;;;;;-7.58;85.48;99047.20;1608352;86;20099;-71
2021/12/26 01:36:39;;;;;;;;;;;;;;;-7.60;85.54;99051.09;1655935;86;20482;-71
2021/12/26 01:39:09;;;;;;;;;;;;;;;-7.63;85.54;99054.19;1638732;86;20183;-70
2021/12/26 01:42:01;;;;;;;;;;;;;;;-7.64;86.00;99058.70;1621529;88;21242;-71
2021/12/26 01:44:44;;;;;;;;;;;;;;;-7.66;85.98;99059.42;1624358;86;20441;-72
2021/12/26 01:47:15;;;;;;;;;;;;;;;-7.71;85.89;99061.90;1660504;86;20122;-72
2021/12/26 01:49:47;;;;;;;;;;;;;;;-7.74;86.00;99063.13;1661444;86;20090;-72
2021/12/26 01:52:16;;;;;;;;;;;;;;;-7.76;86.03;99061.19;1663766;86;20170;-73
2021/12/26 01:54:48;;;;;;;;;;;;;;;-7.78;86.08;99064.58;1636581;86;20134;-71
2021/12/26 01:57:23;;;;;;;;;;;;;;;-7.79;86.24;99062.13;1633089;86;20147;-71
2021/12/26 01:59:58;;;;;;;;;;;;;;;-7.81;86.36;99061.52;1664854;86;20219;-71
2021/12/26 02:02:26;;;;;;;;;;;;;;;-7.86;86.40;99059.98;1663550;86;20154;-70
2021/12/26 02:04:55;;;;;;;;;;;;;;;-7.90;86.50;99063.58;1636431;86;20485;-70
2021/12/26 02:07:22;;;;;;;;;;;;;;;-7.92;86.58;99063.48;1636366;86;21147;-70
2021/12/26 02:09:57;;;;;;;;;;;;;;;-7.96;86.67;99063.59;1664325;84;20127;-71
2021/12/26 02:12:30;;;;;;;;;;;;;;;-8.01;86.94;99063.70;1636968;86;20534;-70
2021/12/26 02:15:12;;;;;;;;;;;;;;;-8.05;87.16;99057.16;1664688;86;20469;-73
2021/12/26 02:17:50;;;;;;;;;;;;;;;-8.06;87.44;99060.84;1634343;86;20106;-73
2021/12/26 02:20:57;;;;;;;;;;;;;;;-8.09;87.55;99061.80;1634161;86;20136;-71
2021/12/26 02:23:20;;;;;;;;;;;;;;;-8.11;87.81;99066.00;1632616;86;20441;-70
2021/12/26 02:28:31;;;;;;;;;;;;;;;-8.13;88.52;99059.25;1661549;86;20441;-73
2021/12/26 02:31:02;;;;;;;;;;;;;;;-8.14;88.73;99066.94;1661568;86;20111;-72
2021/12/26 02:33:30;;;;;;;;;;;;;;;-8.14;89.06;99067.75;1661646;86;21780;-71
2021/12/26 02:35:59;;;;;;;;;;;;;;;-8.14;89.06;99077.08;1634798;86;20133;-70
2021/12/26 02:38:36;;;;;;;;;;;;;;;-8.15;88.99;99070.11;1634338;86;20091;-70
2021/12/26 02:41:09;;;;;;;;;;;;;;;-8.16;89.21;99075.64;1653685;86;20438;-70
2021/12/26 02:43:38;;;;;;;;;;;;;;;-8.18;89.25;99071.85;1640007;86;20504;-70
2021/12/26 02:46:12;;;;;;;;;;;;;;;-8.21;89.22;99071.45;1623551;86;20776;-70
2021/12/26 02:48:44;;;;;;;;;;;;;;;-8.24;89.48;99065.20;1655773;86;20445;-70
2021/12/26 02:51:13;;;;;;;;;;;;;;;-8.25;89.59;99067.55;1646820;87;20103;-70
2021/12/26 02:53:43;;;;;;;;;;;;;;;-8.28;89.63;99067.45;1647212;87;20122;-71
2021/12/26 02:56:15;;;;;;;;;;;;;;;-8.30;89.61;99066.84;1647141;87;20444;-70
2021/12/26 02:58:48;;;;;;;;;;;;;;;-8.33;89.66;99064.63;1627339;87;20107;-70
2021/12/26 03:01:23;;;;;;;;;;;;;;;-8.34;89.71;99066.47;1646681;87;20137;-69
2021/12/26 03:04:09;;;;;;;;;;;;;;;-8.36;89.69;99071.69;1647448;86;20454;-70
2021/12/26 03:06:38;;;;;;;;;;;;;;;-8.40;89.91;99072.61;1643355;87;20091;-73
2021/12/26 03:08:57;;;;;;;;;;;;;;;-8.41;90.03;99085.61;1645783;87;20166;-73
2021/12/26 03:11:30;;;;;;;;;;;;;;;-8.43;90.14;99098.82;1646975;87;21100;-73
2021/12/26 03:13:55;;;;;;;;;;;;;;;-8.45;90.24;99104.34;1646233;87;20146;-73
2021/12/26 03:16:26;;;;;;;;;;;;;;;-8.44;90.32;99107.83;1648374;85;20145;-73
2021/12/26 03:19:02;;;;;;;;;;;;;;;-8.47;90.30;99110.39;1647727;87;20086;-73
2021/12/26 03:21:33;;;;;;;;;;;;;;;-8.47;90.75;99109.56;1652973;86;20470;-71
2021/12/26 03:23:59;;;;;;;;;;;;;;;-8.48;91.10;99107.42;1648317;87;21131;-71
2021/12/26 03:26:27;;;;;;;;;;;;;;;-8.49;90.97;99106.29;1646879;87;21694;-71
2021/12/26 03:28:55;;;;;;;;;;;;;;;-8.51;90.89;99108.34;1646320;87;20099;-71
2021/12/26 03:31:21;;;;;;;;;;;;;;;-8.50;91.37;99113.45;1646928;87;20119;-71
2021/12/26 03:33:50;;;;;;;;;;;;;;;-8.50;91.21;99105.47;1647145;87;20094;-72
2021/12/26 03:36:18;;;;;;;;;;;;;;;-8.52;91.11;99110.69;1646584;86;21806;-72
2021/12/26 03:38:48;;;;;;;;;;;;;;;-8.53;91.07;99113.05;1646944;87;20091;-72
2021/12/26 03:41:22;;;;;;;;;;;;;;;-8.54;91.08;99112.73;1645650;87;20119;-71
2021/12/26 03:43:55;;;;;;;;;;;;;;;-8.54;91.07;99113.55;1646835;87;20115;-70
2021/12/26 03:46:23;;;;;;;;;;;;;;;-8.56;91.22;99111.61;1646561;87;20125;-71
2021/12/26 03:48:53;;;;;;;;;;;;;;;-8.53;91.80;99118.37;1627383;87;20441;-71
2021/12/26 03:51:37;;;;;;;;;;;;;;;-8.55;91.59;99123.89;1646101;86;20098;-71
2021/12/26 03:53:55;;;;;;;;;;;;;;;-8.56;91.49;99130.75;1641101;86;20461;-74
2021/12/26 03:56:24;;;;;;;;;;;;;;;-8.59;91.61;99125.32;1646902;86;20115;-73
2021/12/26 03:58:58;;;;;;;;;;;;;;;-8.60;91.62;99134.33;1646515;87;20106;-73
2021/12/26 04:01:42;;;;;;;;;;;;;;;-8.62;91.58;99132.89;1627937;87;20082;-73
2021/12/26 04:04:05;;;;;;;;;;;;;;;-8.66;91.75;99126.64;1642548;87;20135;-72
2021/12/26 04:06:34;;;;;;;;;;;;;;;-8.66;91.81;99127.15;1646999;86;20090;-73
2021/12/26 04:09:10;;;;;;;;;;;;;;;-8.68;91.75;99130.05;1627536;87;20111;-72
2021/12/26 04:11:38;;;;;;;;;;;;;;;-8.70;91.98;99126.77;1645645;87;20095;-72
2021/12/26 04:14:08;;;;;;;;;;;;;;;-8.72;92.06;99130.14;1622486;88;20452;-72
2021/12/26 04:16:39;;;;;;;;;;;;;;;-8.73;91.92;99135.15;1633649;87;20154;-72
2021/12/26 04:19:12;;;;;;;;;;;;;;;-8.75;91.84;99138.52;1645103;85;20432;-72
2021/12/26 04:21:41;;;;;;;;;;;;;;;-8.75;92.22;99139.85;1632460;86;20211;-72
2021/12/26 04:24:12;;;;;;;;;;;;;;;-8.76;92.76;99140.05;1626781;88;20084;-71
2021/12/26 04:26:41;;;;;;;;;;;;;;;-8.72;93.06;99142.63;1626127;87;22026;-73
2021/12/26 04:29:14;;;;;;;;;;;;;;;-8.73;92.89;99146.30;1626397;88;20108;-72
2021/12/26 04:31:43;;;;;;;;;;;;;;;-8.75;92.79;99143.84;1626436;88;20112;-72
2021/12/26 04:34:19;;;;;;;;;;;;;;;-8.78;92.60;99150.89;1605628;88;20096;-72
2021/12/26 04:36:53;;;;;;;;;;;;;;;-8.80;92.67;99152.94;1626259;88;20212;-71
2021/12/26 04:39:17;;;;;;;;;;;;;;;-8.80;92.72;99148.95;1625831;88;21161;-71
2021/12/26 04:41:47;;;;;;;;;;;;;;;-8.80;92.58;99152.12;1605770;88;20101;-70
2021/12/26 04:44:37;;;;;;;;;;;;;;;-8.83;92.43;99148.53;1626600;88;20441;-71
2021/12/26 04:47:14;;;;;;;;;;;;;;;-8.84;92.44;99153.54;1584371;88;21968;-69
2021/12/26 04:49:45;;;;;;;;;;;;;;;-8.86;92.37;99158.23;1602177;88;20443;-67
2021/12/26 04:52:13;;;;;;;;;;;;;;;-8.89;92.36;99156.80;1614729;87;20106;-70
2021/12/26 04:54:42;;;;;;;;;;;;;;;-8.89;92.45;99157.31;1641865;87;20146;-70
2021/12/26 04:57:10;;;;;;;;;;;;;;;-8.89;92.62;99154.65;1650718;86;20094;-70
2021/12/26 04:59:44;;;;;;;;;;;;;;;-8.90;92.46;99157.00;1646452;87;20186;-69
2021/12/26 05:02:16;;;;;;;;;;;;;;;-8.93;92.43;99168.86;1626930;86;20093;-69
2021/12/26 05:04:44;;;;;;;;;;;;;;;-8.93;92.48;99160.05;1624484;88;21924;-70
2021/12/26 05:07:15;;;;;;;;;;;;;;;-8.94;92.45;99165.89;1636536;86;20136;-70
2021/12/26 05:09:46;;;;;;;;;;;;;;;-8.95;92.39;99162.92;1611516;87;20182;-69
2021/12/26 05:12:22;;;;;;;;;;;;;;;-8.96;92.43;99165.27;1577263;86;20114;-70
2021/12/26 05:14:54;;;;;;;;;;;;;;;-8.98;92.39;99165.97;1602332;87;20121;-71
2021/12/26 05:17:22;;;;;;;;;;;;;;;-9.00;92.34;99168.02;1606884;88;20142;-71
2021/12/26 05:19:53;;;;;;;;;;;;;;;-9.01;92.30;99170.36;1624317;87;20085;-71
2021/12/26 05:22:22;;;;;;;;;;;;;;;-9.05;92.29;99176.59;1628138;87;20437;-71
2021/12/26 05:24:50;;;;;;;;;;;;;;;-9.06;92.30;99175.45;1623133;88;20149;-71
2021/12/26 05:27:23;;;;;;;;;;;;;;;-9.07;92.34;99181.80;1607358;87;20101;-73
2021/12/26 05:29:52;;;;;;;;;;;;;;;-9.09;92.37;99186.48;1628615;87;21670;-70
2021/12/26 05:32:22;;;;;;;;;;;;;;;-9.13;92.33;99183.91;1624069;88;20097;-71
2021/12/26 05:34:53;;;;;;;;;;;;;;;-9.13;92.53;99191.38;1601805;86;20176;-71
2021/12/26 05:37:23;;;;;;;;;;;;;;;-9.14;92.73;99195.06;1621891;87;21680;-71
2021/12/26 05:39:51;;;;;;;;;;;;;;;-9.15;92.68;99196.59;1603174;88;20158;-71
2021/12/26 05:42:20;;;;;;;;;;;;;;;-9.17;92.65;99197.29;1624728;87;20093;-71
2021/12/26 05:44:50;;;;;;;;;;;;;;;-9.19;92.84;99195.34;1605058;88;20197;-71
2021/12/26 05:47:20;;;;;;;;;;;;;;;-9.18;92.94;99192.98;1621347;87;20097;-71
2021/12/26 05:49:52;;;;;;;;;;;;;;;-9.19;92.87;99200.14;1624408;87;20458;-71
2021/12/26 05:52:21;;;;;;;;;;;;;;;-9.21;92.99;99206.17;1642986;85;20433;-70
2021/12/26 05:54:50;;;;;;;;;;;;;;;-9.21;93.17;99202.18;1633170;86;21234;-70
2021/12/26 05:57:19;;;;;;;;;;;;;;;-9.22;93.11;99206.36;1617104;85;20502;-70
2021/12/26 05:59:49;;;;;;;;;;;;;;;-9.23;93.10;99208.20;1639113;86;20470;-69
2021/12/26 06:02:20;;;;;;;;;;;;;;;-9.22;93.26;99207.70;1609923;88;20146;-73
2021/12/26 06:04:47;;;;;;;;;;;;;;;-9.22;93.29;99205.03;1623585;87;20152;-74
2021/12/26 06:07:15;;;;;;;;;;;;;;;-9.23;93.28;99210.86;1621023;87;21812;-73
2021/12/26 06:09:48;;;;;;;;;;;;;;;-9.23;93.30;99212.19;1613475;87;20158;-74
2021/12/26 06:12:20;;;;;;;;;;;;;;;-9.22;93.29;99217.82;1613629;87;20175;-70
2021/12/26 06:14:45;;;;;;;;;;;;;;;-9.21;93.27;99214.66;1611542;87;20123;-73
2021/12/26 06:17:15;;;;;;;;;;;;;;;-9.21;93.42;99218.64;1628721;86;20104;-83
2021/12/26 06:20:02;;;;;;;;;;;;;;;-9.19;93.50;99224.08;1623043;86;21539;-73
2021/12/26 06:22:32;;;;;;;;;;;;;;;-9.17;93.46;99233.19;1624272;87;20611;-74
2021/12/26 06:25:08;;;;;;;;;;;;;;;-9.16;93.44;99232.17;1614769;86;20431;-73
2021/12/26 06:27:36;;;;;;;;;;;;;;;-9.13;93.68;99234.44;1649054;86;20103;-73
2021/12/26 06:30:19;;;;;;;;;;;;;;;-9.11;93.62;99235.06;1649991;86;20211;-73
2021/12/26 06:32:53;;;;;;;;;;;;;;;-9.10;93.63;99232.71;1597110;87;20583;-77
2021/12/26 06:35:49;;;;;;;;;;;;;;;-9.09;93.77;99240.49;1649703;85;20121;-73
2021/12/26 06:38:36;;;;;;;;;;;;;;;-9.08;93.74;99240.81;1615566;87;20191;-68
2021/12/26 06:41:26;;;;;;;;;;;;;;;-9.05;93.64;99240.92;1609824;87;20148;-68
2021/12/26 06:44:10;;;;;;;;;;;;;;;-9.03;93.66;99245.03;1618156;87;20159;-66
2021/12/26 06:46:52;;;;;;;;;;;;;;;-8.93;93.88;99249.98;1622932;87;21191;-69
2021/12/26 06:49:31;;;;;;;;;;;;;;;-8.73;94.29;99249.56;1622771;87;20182;-70
2021/12/26 06:52:03;;;;;;;;;;;;;;;-8.39;94.68;99245.97;1649290;85;20243;-70
2021/12/26 06:54:38;;;;;;;;;;;;;;;-8.00;94.43;99239.02;1632754;86;20152;-70
2021/12/26 06:57:04;;;;;;;;;;;;;;;-7.58;93.63;99248.46;1648486;85;20204;-73
2021/12/26 06:59:30;;;;;;;;;;;;;;;-7.37;91.63;99242.05;1644007;84;21321;-69
2021/12/26 07:02:03;;;;;;;;;;;;;;;-7.20;90.92;99238.44;1614843;87;20417;-69
2021/12/26 07:04:48;;;;;;;;;;;;;;;-6.94;89.45;99240.22;1644008;85;20130;-70
2021/12/26 07:07:17;;;;;;;;;;;;;;;-6.81;88.03;99236.97;1640464;86;20204;-70
2021/12/26 07:09:51;;;;;;;;;;;;;;;-6.72;87.02;99246.89;1622975;88;20189;-68
2021/12/26 07:12:22;;;;;;;;;;;;;;;-6.67;86.09;99253.23;1623787;88;21133;-69
2021/12/26 07:14:52;;;;;;;;;;;;;;;-6.62;85.73;99246.44;1623502;88;20451;-71
2021/12/26 07:17:30;;;;;;;;;;;;;;;-6.60;85.00;99257.22;1589544;88;32379;-70
2021/12/26 07:19:58;;;;;;;;;;;;;;;-6.68;84.69;99253.45;1584668;88;20430;-70
2021/12/26 07:22:46;;;;;;;;;;;;;;;-6.68;84.57;99264.13;1623117;87;20103;-69
2021/12/26 07:25:15;;;;;;;;;;;;;;;-6.52;85.15;99266.84;1622137;87;20422;-70
2021/12/26 07:27:51;;;;;;;;;;;;;;;-6.25;84.35;99262.98;1624836;88;20104;-70
2021/12/26 07:30:37;;;;;;;;;;;;;;;-5.90;84.00;99261.23;1604412;88;20136;-70
2021/12/26 07:33:04;;;;;;;;;;;;;;;-5.45;83.30;99256.51;1634406;87;20105;-70
2021/12/26 07:35:39;;;;;;;;;;;;;;;-4.86;82.73;99257.23;1618758;86;20115;-69
2021/12/26 07:38:08;;;;;;;;;;;;;;;-4.25;80.11;99266.98;1620670;85;21546;-69
2021/12/26 07:40:36;;;;;;;;;;;;;;;-3.75;77.98;99258.10;1655867;86;20124;-71
2021/12/26 07:43:11;;;;;;;;;;;;;;;-3.37;75.62;99252.83;1649314;86;20104;-70
2021/12/26 07:45:55;;;;;;;;;;;;;;;-3.07;74.33;99262.12;1658403;85;20178;-70
2021/12/26 07:48:22;;;;;;;;;;;;;;;-2.75;73.85;99263.34;1654850;86;20175;-71
2021/12/26 07:50:55;;;;;;;;;;;;;;;-2.41;71.11;99260.30;1662997;84;21122;-71
2021/12/26 07:53:44;;;;;;;;;;;;;;;-2.22;69.64;99270.33;1626611;86;20274;-70
2021/12/26 07:56:26;;;;;;;;;;;;;;;-1.94;69.03;99269.52;1661137;84;20133;-71
2021/12/26 07:59:13;;;;;;;;;;;;;;;-1.74;67.74;99256.43;1652663;86;20447;-70
2021/12/26 08:01:58;;;;;;;;;;;;;;;-1.48;66.84;99259.00;1658516;85;20129;-69
2021/12/26 08:04:45;;;;;;;;;;;;;;;-1.34;63.59;99254.92;1650820;86;21203;-68
2021/12/26 08:07:23;;;;;;;;;;;;;;;-1.45;63.28;99253.13;1653461;85;20113;-72
2021/12/26 08:09:50;;;;;;;;;;;;;;;-1.43;63.13;99263.65;1653062;85;20137;-70
2021/12/26 08:12:18;;;;;;;;;;;;;;;-1.24;64.03;99261.00;1652528;85;20088;-69
2021/12/26 08:14:50;;;;;;;;;;;;;;;-1.25;61.79;99255.86;1653920;85;20233;-72
2021/12/26 08:17:16;;;;;;;;;;;;;;;-1.50;62.22;99254.91;1643702;86;21174;-69
2021/12/26 08:19:48;;;;;;;;;;;;;;;-1.76;63.40;99263.11;1657173;84;20155;-69
2021/12/26 08:22:14;;;;;;;;;;;;;;;-1.82;64.40;99260.86;1639976;84;20329;-80
2021/12/26 08:24:42;;;;;;;;;;;;;;;-1.51;64.68;99260.02;1646592;84;20151;-76
2021/12/26 08:27:12;;;;;;;;;;;;;;;-1.11;63.92;99255.25;1620896;85;20269;-76
2021/12/26 08:29:44;;;;;;;;;;;;;;;-0.72;63.07;99253.38;1641135;85;21170;-79
2021/12/26 08:32:17;;;;;;;;;;;;;;;-0.35;62.26;99250.86;1655555;83;20181;-81
2021/12/26 08:34:48;;;;;;;;;;;;;;;-0.02;61.33;99250.42;1636263;86;20104;-80
2021/12/26 08:37:14;;;;;;;;;;;;;;;0.08;59.34;99250.50;1631162;87;20168;-80
2021/12/26 08:39:42;;;;;;;;;;;;;;;-0.07;59.13;99243.62;1635695;86;20154;-80
2021/12/26 08:42:12;;;;;;;;;;;;;;;-0.21;59.07;99240.50;1651178;86;21016;-79
2021/12/26 08:44:45;;;;;;;;;;;;;;;-0.19;58.87;99241.06;1657271;86;20094;-78
2021/12/26 08:47:11;;;;;;;;;;;;;;;-0.24;58.80;99247.75;1646185;84;20151;-79
2021/12/26 08:49:39;;;;;;;;;;;;;;;-0.35;59.12;99248.16;1633264;86;20099;-77
2021/12/26 08:52:12;;;;;;;;;;;;;;;-0.25;59.71;99246.66;1627281;85;20195;-77
2021/12/26 08:55:03;;;;;;;;;;;;;;;0.00;58.88;99242.89;1652311;85;20212;-77
2021/12/26 08:57:33;;;;;;;;;;;;;;;0.18;58.44;99238.99;1658210;84;20123;-78
2021/12/26 09:00:04;;;;;;;;;;;;;;;0.26;57.37;99239.87;1688233;84;20139;-74
2021/12/26 09:02:37;;;;;;;;;;;;;;;0.32;57.48;99237.51;1664359;84;20154;-80
2021/12/26 09:05:07;;;;;;;;;;;;;;;0.43;57.09;99237.06;1642188;86;20153;-78
2021/12/26 09:07:37;;;;;;;;;;;;;;;0.53;57.31;99235.80;1627411;86;20090;-80
2021/12/26 09:10:12;;;;;;;;;;;;;;;0.82;57.24;99232.22;1621367;87;20107;-80
2021/12/26 09:12:45;;;;;;;;;;;;;;;1.16;56.01;99231.33;1636138;86;20168;-77
2021/12/26 09:15:13;;;;;;;;;;;;;;;1.27;54.89;99232.47;1685948;83;20109;-80
2021/12/26 09:17:44;;;;;;;;;;;;;;;1.27;54.22;99224.36;1683027;84;20172;-78
2021/12/26 09:20:16;;;;;;;;;;;;;;;1.23;54.05;99225.96;1637441;86;21160;-70
2021/12/26 09:22:48;;;;;;;;;;;;;;;1.15;54.69;99228.38;1635749;86;20157;-70
2021/12/26 09:25:19;;;;;;;;;;;;;;;1.16;55.18;99228.63;1631962;86;20446;-76
2021/12/26 09:27:45;;;;;;;;;;;;;;;1.40;55.35;99229.02;1617878;86;20520;-73
2021/12/26 09:30:19;;;;;;;;;;;;;;;1.61;53.92;99222.09;1624334;87;20504;-74
2021/12/26 09:32:54;;;;;;;;;;;;;;;1.52;53.56;99216.09;1648908;86;21166;-71
2021/12/26 09:35:20;;;;;;;;;;;;;;;1.40;54.10;99211.44;1648696;86;20161;-78
2021/12/26 09:37:50;;;;;;;;;;;;;;;1.14;54.01;99215.40;1649191;86;20153;-75
2021/12/26 09:40:19;;;;;;;;;;;;;;;0.90;54.43;99216.87;1666268;84;20131;-80
2021/12/26 09:42:48;;;;;;;;;;;;;;;0.61;55.25;99207.75;1638954;85;20152;-81
2021/12/26 09:45:20;;;;;;;;;;;;;;;0.48;55.45;99219.02;1624284;86;20643;-83
2021/12/26 09:47:56;;;;;;;;;;;;;;;0.50;56.18;99226.33;1598886;88;20100;-79
2021/12/26 09:50:28;;;;;;;;;;;;;;;0.78;55.77;99218.41;1635253;86;20194;-81
2021/12/26 09:52:57;;;;;;;;;;;;;;;1.06;55.60;99220.48;1648459;85;20219;-75
2021/12/26 09:55:33;;;;;;;;;;;;;;;1.35;54.78;99223.59;1645115;85;20122;-79
2021/12/26 09:58:00;;;;;;;;;;;;;;;1.39;54.13;99217.93;1616544;86;20766;-73
2021/12/26 10:00:39;;;;;;;;;;;;;;;1.39;54.78;99216.03;1642974;86;20109;-74
2021/12/26 10:03:47;;;;;;;;;;;;;;;1.57;54.36;99214.77;1639522;86;20142;-75
2021/12/26 10:05:58;;;;;;;;;;;;;;;1.73;53.47;99221.05;1641026;86;20179;-74
2021/12/26 10:08:31;;;;;;;;;;;;;;;1.86;53.08;99215.92;1645353;85;20158;-79
2021/12/26 10:11:05;;;;;;;;;;;;;;;1.82;52.28;99213.47;1640161;86;21172;-75
2021/12/26 10:13:56;;;;;;;;;;;;;;;1.79;52.99;99208.59;1621516;85;20173;-79
2021/12/26 10:16:20;;;;;;;;;;;;;;;1.90;52.61;99213.48;1644521;85;20188;-78
2021/12/26 10:18:50;;;;;;;;;;;;;;;2.18;52.85;99216.26;1617436;86;21014;-79
2021/12/26 10:21:24;;;;;;;;;;;;;;;2.50;51.30;99210.56;1618335;86;20128;-78
2021/12/26 10:23:55;;;;;;;;;;;;;;;2.66;51.02;99212.20;1634428;85;21087;-76
2021/12/26 10:26:27;;;;;;;;;;;;;;;2.81;49.27;99210.02;1635208;85;20212;-80
2021/12/26 10:29:08;;;;;;;;;;;;;;;2.74;49.68;99214.36;1636952;85;20294;-74
2021/12/26 10:31:47;;;;;;;;;;;;;;;2.79;49.99;99215.71;1635163;85;20076;-74
2021/12/26 10:34:25;;;;;;;;;;;;;;;3.06;48.97;99209.95;1627312;85;20186;-76
2021/12/26 10:36:54;;;;;;;;;;;;;;;3.25;49.12;99212.34;1608499;86;20245;-73
2021/12/26 10:39:26;;;;;;;;;;;;;;;3.26;47.85;99203.66;1653336;86;20228;-74
2021/12/26 10:41:56;;;;;;;;;;;;;;;3.03;48.49;99198.30;1655945;84;20469;-72
2021/12/26 10:44:31;;;;;;;;;;;;;;;3.25;48.66;99195.25;1650096;86;20139;-71
2021/12/26 10:47:12;;;;;;;;;;;;;;;3.45;47.35;99200.61;1608796;86;20190;-70
2021/12/26 10:49:48;;;;;;;;;;;;;;;3.27;46.41;99203.39;1650863;86;21113;-72
2021/12/26 10:52:21;;;;;;;;;;;;;;;3.01;48.13;99202.37;1650278;85;20245;-72
2021/12/26 10:54:54;;;;;;;;;;;;;;;3.07;48.04;99195.30;1651408;86;20136;-71
2021/12/26 10:57:26;;;;;;;;;;;;;;;3.21;47.94;99194.99;1653382;85;20126;-74
2021/12/26 11:00:16;;;;;;;;;;;;;;;3.30;47.09;99190.63;1653988;85;20087;-74
2021/12/26 11:03:12;;;;;;;;;;;;;;;3.39;47.47;99185.98;1660171;86;22023;-70
2021/12/26 11:05:46;;;;;;;;;;;;;;;3.48;46.75;99191.08;1653373;84;20182;-71
2021/12/26 11:08:16;;;;;;;;;;;;;;;3.51;45.90;99187.81;1625081;86;20244;-73
2021/12/26 11:10:44;;;;;;;;;;;;;;;3.44;46.84;99199.53;1661490;84;21066;-74
2021/12/26 11:13:27;;;;;;;;;;;;;;;3.49;46.79;99196.77;1635994;86;20148;-69
2021/12/26 11:15:55;;;;;;;;;;;;;;;3.62;45.96;99196.98;1654583;85;21148;-70
2021/12/26 11:18:29;;;;;;;;;;;;;;;3.58;45.52;99196.47;1625789;87;20453;-72
2021/12/26 11:20:58;;;;;;;;;;;;;;;3.59;45.56;99192.66;1624968;87;20412;-70
2021/12/26 11:23:27;;;;;;;;;;;;;;;3.69;45.91;99206.73;1657664;86;20257;-70
2021/12/26 11:25:58;;;;;;;;;;;;;;;3.75;45.37;99201.55;1655132;86;20145;-71
2021/12/26 11:28:32;;;;;;;;;;;;;;;3.88;44.81;99200.39;1666722;85;21177;-70
2021/12/26 11:31:05;;;;;;;;;;;;;;;4.01;44.93;99198.15;1658342;85;20130;-70
2021/12/26 11:33:32;;;;;;;;;;;;;;;3.79;43.86;99202.06;1639181;86;20447;-70
2021/12/26 11:36:01;;;;;;;;;;;;;;;3.53;44.02;99200.55;1614986;88;20444;-70
2021/12/26 11:38:32;;;;;;;;;;;;;;;3.39;44.58;99204.98;1626581;87;20179;-70
2021/12/26 11:41:03;;;;;;;;;;;;;;;3.29;44.53;99206.64;1642516;87;21765;-72
2021/12/26 11:44:01;;;;;;;;;;;;;;;3.19;45.22;99201.78;1617660;86;20158;-71
2021/12/26 11:47:03;;;;;;;;;;;;;;;3.29;44.90;99206.64;1592775;87;20123;-71
2021/12/26 11:50:00;;;;;;;;;;;;;;;3.32;45.12;99199.84;1627751;86;20139;-69
2021/12/26 11:53:04;;;;;;;;;;;;;;;3.42;45.55;99198.45;1604945;87;20178;-71
2021/12/26 11:55:42;;;;;;;;;;;;;;;3.72;45.29;99198.84;1630547;86;21941;-70
2021/12/26 11:58:20;;;;;;;;;;;;;;;3.92;44.83;99200.64;1617785;86;20443;-72
2021/12/26 12:00:55;;;;;;;;;;;;;;;3.74;44.56;99206.70;1629571;86;20503;-71
2021/12/26 12:03:25;;;;;;;;;;;;;;;3.45;45.12;99210.66;1614673;87;20090;-70
2021/12/26 12:05:57;;;;;;;;;;;;;;;3.27;45.10;99203.93;1639642;85;20207;-71
2021/12/26 12:08:28;;;;;;;;;;;;;;;3.24;46.10;99209.91;1643804;86;21160;-70
2021/12/26 12:10:59;;;;;;;;;;;;;;;3.41;45.74;99200.09;1618377;87;21031;-71
2021/12/26 12:13:46;;;;;;;;;;;;;;;3.55;45.25;99204.62;1635476;86;20256;-71
2021/12/26 12:16:27;;;;;;;;;;;;;;;3.53;45.43;99199.20;1626758;86;20147;-71
2021/12/26 12:18:56;;;;;;;;;;;;;;;3.40;45.82;99198.47;1641400;87;20177;-72
2021/12/26 12:21:50;;;;;;;;;;;;;;;3.27;45.38;99206.09;1652020;85;21135;-70
2021/12/26 12:24:17;;;;;;;;;;;;;;;3.35;46.03;99203.91;1629251;87;20119;-68
2021/12/26 12:26:59;;;;;;;;;;;;;;;3.58;45.51;99204.60;1649265;86;20492;-69
2021/12/26 12:29:33;;;;;;;;;;;;;;;3.39;46.06;99207.15;1652712;87;20130;-66
2021/12/26 12:32:12;;;;;;;;;;;;;;;3.57;46.56;99209.77;1652864;87;20458;-81
2021/12/26 12:34:49;;;;;;;;;;;;;;;3.77;46.11;99204.25;1648663;86;20607;-78
2021/12/26 12:37:40;;;;;;;;;;;;;;;4.03;46.12;99217.14;1638757;87;20102;-77
2021/12/26 12:40:19;;;;;;;;;;;;;;;4.24;44.62;99220.52;1648158;85;20131;-80
2021/12/26 12:43:12;;;;;;;;;;;;;;;3.54;44.16;99221.17;1630606;86;20533;-82
2021/12/26 12:46:04;;;;;;;;;;;;;;;2.51;45.95;99230.63;1645919;87;20131;-80
2021/12/26 12:48:41;;;;;;;;;;;;;;;1.88;47.77;99232.70;1651145;86;21126;-79
2021/12/26 12:51:20;;;;;;;;;;;;;;;1.70;49.19;99231.86;1632311;86;20522;-80
2021/12/26 12:53:54;;;;;;;;;;;;;;;1.76;49.26;99233.47;1635032;87;20105;-83
2021/12/26 12:56:36;;;;;;;;;;;;;;;1.87;49.31;99232.97;1642772;86;20444;-72
2021/12/26 12:59:21;;;;;;;;;;;;;;;1.88;49.42;99235.95;1643989;86;20150;-75
2021/12/26 13:01:51;;;;;;;;;;;;;;;1.79;48.95;99237.55;1644293;86;21567;-77
2021/12/26 13:04:19;;;;;;;;;;;;;;;1.39;49.79;99240.92;1650928;87;20468;-77
2021/12/26 13:07:02;;;;;;;;;;;;;;;1.05;51.30;99237.78;1644675;86;20107;-78
2021/12/26 13:09:30;;;;;;;;;;;;;;;0.76;51.71;99238.66;1638636;87;20118;-75
2021/12/26 13:12:02;;;;;;;;;;;;;;;0.35;52.83;99240.23;1632119;87;20173;-78
2021/12/26 13:14:45;;;;;;;;;;;;;;;0.11;53.54;99241.08;1616866;87;21812;-75
2021/12/26 13:17:17;;;;;;;;;;;;;;;0.05;54.36;99246.14;1638418;87;20344;-74
2021/12/26 13:19:43;;;;;;;;;;;;;;;-0.03;54.31;99247.45;1644347;86;20181;-78
2021/12/26 13:22:10;;;;;;;;;;;;;;;-0.09;55.80;99247.11;1638145;87;20177;-78
2021/12/26 13:24:38;;;;;;;;;;;;;;;-0.18;55.09;99249.44;1636688;86;20184;-79